sensor_id;sensor_type;location;lat;lon;timestamp;P1;durP1;ratioP1;P2;durP2;ratioP2
16326;SDS011;34812;49.846;9.610;2023-07-29T00:00:19;2.58;;;1.17;;
16326;SDS011;34812;49.846;9.610;2023-07-29T00:05:21;4.03;;;1.20;;
16326;SDS011;34812;49.846;9.610;2023-07-29T00:10:23;1.30;;;1.20;;
16326;SDS011;34812;49.846;9.610;2023-07-29T00:15:27;3.80;;;1.15;;
16326;SDS011;34812;49.846;9.610;2023-07-29T00:20:29;0.80;;;0.80;;
16326;SDS011;34812;49.846;9.610;2023-07-29T00:25:31;1.23;;;1.10;;
16326;SDS011;34812;49.846;9.610;2023-07-29T00:30:34;1.00;;;1.00;;
16326;SDS011;34812;49.846;9.610;2023-07-29T00:35:37;1.10;;;1.00;;
16326;SDS011;34812;49.846;9.610;2023-07-29T00:40:39;1.67;;;1.45;;
16326;SDS011;34812;49.846;9.610;2023-07-29T00:45:42;1.38;;;1.25;;
16326;SDS011;34812;49.846;9.610;2023-07-29T00:50:45;1.63;;;0.90;;
16326;SDS011;34812;49.846;9.610;2023-07-29T00:55:47;1.20;;;1.10;;
16326;SDS011;34812;49.846;9.610;2023-07-29T01:00:50;1.83;;;1.60;;
16326;SDS011;34812;49.846;9.610;2023-07-29T01:05:58;4.85;;;1.48;;
16326;SDS011;34812;49.846;9.610;2023-07-29T01:11:01;1.83;;;1.63;;
16326;SDS011;34812;49.846;9.610;2023-07-29T01:16:08;1.30;;;1.13;;
16326;SDS011;34812;49.846;9.610;2023-07-29T01:21:12;1.17;;;1.08;;
16326;SDS011;34812;49.846;9.610;2023-07-29T01:26:17;1.25;;;1.13;;
16326;SDS011;34812;49.846;9.610;2023-07-29T01:31:22;2.90;;;1.20;;
16326;SDS011;34812;49.846;9.610;2023-07-29T01:36:27;1.60;;;1.10;;
16326;SDS011;34812;49.846;9.610;2023-07-29T01:41:31;1.40;;;1.30;;
16326;SDS011;34812;49.846;9.610;2023-07-29T01:46:34;1.90;;;1.25;;
16326;SDS011;34812;49.846;9.610;2023-07-29T01:51:36;3.88;;;1.38;;
16326;SDS011;34812;49.846;9.610;2023-07-29T01:56:40;1.50;;;1.40;;
16326;SDS011;34812;49.846;9.610;2023-07-29T02:01:42;2.45;;;1.38;;
16326;SDS011;34812;49.846;9.610;2023-07-29T02:06:46;2.78;;;1.38;;
16326;SDS011;34812;49.846;9.610;2023-07-29T02:11:50;3.22;;;1.73;;
16326;SDS011;34812;49.846;9.610;2023-07-29T02:16:52;1.42;;;1.33;;
16326;SDS011;34812;49.846;9.610;2023-07-29T02:21:54;2.38;;;1.63;;
16326;SDS011;34812;49.846;9.610;2023-07-29T02:26:57;1.60;;;1.25;;
16326;SDS011;34812;49.846;9.610;2023-07-29T02:32:00;1.38;;;1.20;;
16326;SDS011;34812;49.846;9.610;2023-07-29T02:37:02;5.35;;;1.30;;
16326;SDS011;34812;49.846;9.610;2023-07-29T02:42:06;8.18;;;1.50;;
16326;SDS011;34812;49.846;9.610;2023-07-29T02:47:08;1.65;;;1.35;;
16326;SDS011;34812;49.846;9.610;2023-07-29T02:52:10;3.40;;;1.25;;
16326;SDS011;34812;49.846;9.610;2023-07-29T02:57:14;1.35;;;1.25;;
16326;SDS011;34812;49.846;9.610;2023-07-29T03:02:17;1.38;;;1.27;;
16326;SDS011;34812;49.846;9.610;2023-07-29T03:07:19;1.35;;;1.25;;
16326;SDS011;34812;49.846;9.610;2023-07-29T03:12:23;1.58;;;1.40;;
16326;SDS011;34812;49.846;9.610;2023-07-29T03:17:25;1.60;;;1.40;;
16326;SDS011;34812;49.846;9.610;2023-07-29T03:22:27;2.28;;;1.58;;
16326;SDS011;34812;49.846;9.610;2023-07-29T03:27:31;1.55;;;1.45;;
16326;SDS011;34812;49.846;9.610;2023-07-29T03:32:33;1.75;;;1.55;;
16326;SDS011;34812;49.846;9.610;2023-07-29T03:37:35;3.10;;;1.90;;
16326;SDS011;34812;49.846;9.610;2023-07-29T03:42:39;2.42;;;2.22;;
16326;SDS011;34812;49.846;9.610;2023-07-29T03:47:41;1.90;;;1.80;;
16326;SDS011;34812;49.846;9.610;2023-07-29T03:52:43;2.22;;;2.03;;
16326;SDS011;34812;49.846;9.610;2023-07-29T03:57:47;2.03;;;1.63;;
16326;SDS011;34812;49.846;9.610;2023-07-29T04:02:49;4.75;;;1.85;;
16326;SDS011;34812;49.846;9.610;2023-07-29T04:07:53;1.65;;;1.55;;
16326;SDS011;34812;49.846;9.610;2023-07-29T04:12:57;1.80;;;1.58;;
16326;SDS011;34812;49.846;9.610;2023-07-29T04:17:59;3.75;;;1.63;;
16326;SDS011;34812;49.846;9.610;2023-07-29T04:23:02;2.45;;;1.50;;
16326;SDS011;34812;49.846;9.610;2023-07-29T04:28:05;4.20;;;1.20;;
16326;SDS011;34812;49.846;9.610;2023-07-29T04:33:08;5.13;;;2.03;;
16326;SDS011;34812;49.846;9.610;2023-07-29T04:38:11;2.28;;;1.70;;
16326;SDS011;34812;49.846;9.610;2023-07-29T04:43:15;1.67;;;1.50;;
16326;SDS011;34812;49.846;9.610;2023-07-29T04:48:17;5.20;;;1.80;;
16326;SDS011;34812;49.846;9.610;2023-07-29T04:53:19;6.30;;;1.90;;
16326;SDS011;34812;49.846;9.610;2023-07-29T04:58:22;1.63;;;1.52;;
16326;SDS011;34812;49.846;9.610;2023-07-29T05:03:24;2.22;;;1.92;;
16326;SDS011;34812;49.846;9.610;2023-07-29T05:08:28;3.78;;;1.70;;
16326;SDS011;34812;49.846;9.610;2023-07-29T05:13:31;2.42;;;1.63;;
16326;SDS011;34812;49.846;9.610;2023-07-29T05:18:33;1.73;;;1.60;;
16326;SDS011;34812;49.846;9.610;2023-07-29T05:23:36;3.88;;;1.65;;
16326;SDS011;34812;49.846;9.610;2023-07-29T05:28:39;3.83;;;1.75;;
16326;SDS011;34812;49.846;9.610;2023-07-29T05:33:41;2.53;;;1.65;;
16326;SDS011;34812;49.846;9.610;2023-07-29T05:38:44;3.63;;;1.52;;
16326;SDS011;34812;49.846;9.610;2023-07-29T05:43:48;1.77;;;1.40;;
16326;SDS011;34812;49.846;9.610;2023-07-29T05:48:50;1.35;;;1.25;;
16326;SDS011;34812;49.846;9.610;2023-07-29T05:53:52;1.83;;;1.42;;
16326;SDS011;34812;49.846;9.610;2023-07-29T05:58:56;2.40;;;1.52;;
16326;SDS011;34812;49.846;9.610;2023-07-29T06:03:58;1.27;;;1.08;;
16326;SDS011;34812;49.846;9.610;2023-07-29T06:09:00;1.63;;;1.40;;
16326;SDS011;34812;49.846;9.610;2023-07-29T06:14:04;5.20;;;0.98;;
16326;SDS011;34812;49.846;9.610;2023-07-29T06:19:06;2.17;;;1.20;;
16326;SDS011;34812;49.846;9.610;2023-07-29T06:24:09;6.28;;;0.90;;
16326;SDS011;34812;49.846;9.610;2023-07-29T06:29:12;0.73;;;0.73;;
16326;SDS011;34812;49.846;9.610;2023-07-29T06:34:14;0.82;;;0.80;;
16326;SDS011;34812;49.846;9.610;2023-07-29T06:39:16;2.53;;;1.30;;
16326;SDS011;34812;49.846;9.610;2023-07-29T06:44:20;1.40;;;0.73;;
16326;SDS011;34812;49.846;9.610;2023-07-29T06:49:22;1.20;;;1.10;;
16326;SDS011;34812;49.846;9.610;2023-07-29T06:54:24;1.08;;;0.63;;
16326;SDS011;34812;49.846;9.610;2023-07-29T06:59:27;0.95;;;0.95;;
16326;SDS011;34812;49.846;9.610;2023-07-29T07:04:30;0.85;;;0.75;;
16326;SDS011;34812;49.846;9.610;2023-07-29T07:09:32;1.50;;;0.80;;
16326;SDS011;34812;49.846;9.610;2023-07-29T07:14:36;0.70;;;0.70;;
16326;SDS011;34812;49.846;9.610;2023-07-29T07:19:38;1.00;;;0.60;;
16326;SDS011;34812;49.846;9.610;2023-07-29T07:24:40;0.65;;;0.60;;
16326;SDS011;34812;49.846;9.610;2023-07-29T07:29:44;0.52;;;0.50;;
16326;SDS011;34812;49.846;9.610;2023-07-29T07:34:46;3.42;;;0.82;;
16326;SDS011;34812;49.846;9.610;2023-07-29T07:39:48;1.08;;;0.82;;
16326;SDS011;34812;49.846;9.610;2023-07-29T07:44:52;3.70;;;0.70;;
16326;SDS011;34812;49.846;9.610;2023-07-29T07:49:54;0.70;;;0.60;;
16326;SDS011;34812;49.846;9.610;2023-07-29T07:54:56;0.82;;;0.55;;
16326;SDS011;34812;49.846;9.610;2023-07-29T07:59:59;0.50;;;0.50;;
16326;SDS011;34812;49.846;9.610;2023-07-29T08:05:01;0.57;;;0.55;;
16326;SDS011;34812;49.846;9.610;2023-07-29T08:10:04;2.10;;;0.50;;
16326;SDS011;34812;49.846;9.610;2023-07-29T08:15:08;3.60;;;0.70;;
16326;SDS011;34812;49.846;9.610;2023-07-29T08:20:10;1.15;;;0.82;;
16326;SDS011;34812;49.846;9.610;2023-07-29T08:25:12;1.75;;;0.63;;
16326;SDS011;34812;49.846;9.610;2023-07-29T08:30:16;0.60;;;0.40;;
16326;SDS011;34812;49.846;9.610;2023-07-29T08:35:19;1.55;;;0.70;;
16326;SDS011;34812;49.846;9.610;2023-07-29T08:40:22;0.68;;;0.65;;
16326;SDS011;34812;49.846;9.610;2023-07-29T08:45:26;2.15;;;0.55;;
16326;SDS011;34812;49.846;9.610;2023-07-29T08:50:29;0.40;;;0.40;;
16326;SDS011;34812;49.846;9.610;2023-07-29T08:55:31;0.30;;;0.30;;
16326;SDS011;34812;49.846;9.610;2023-07-29T09:00:35;0.32;;;0.32;;
16326;SDS011;34812;49.846;9.610;2023-07-29T09:05:37;0.60;;;0.50;;
16326;SDS011;34812;49.846;9.610;2023-07-29T09:10:39;0.40;;;0.40;;
16326;SDS011;34812;49.846;9.610;2023-07-29T09:15:43;0.30;;;0.30;;
16326;SDS011;34812;49.846;9.610;2023-07-29T09:20:45;1.58;;;0.65;;
16326;SDS011;34812;49.846;9.610;2023-07-29T09:25:47;1.60;;;0.35;;
16326;SDS011;34812;49.846;9.610;2023-07-29T09:30:51;0.47;;;0.45;;
16326;SDS011;34812;49.846;9.610;2023-07-29T09:35:53;2.92;;;0.70;;
16326;SDS011;34812;49.846;9.610;2023-07-29T09:40:56;0.45;;;0.32;;
16326;SDS011;34812;49.846;9.610;2023-07-29T09:46:00;2.63;;;0.90;;
16326;SDS011;34812;49.846;9.610;2023-07-29T09:51:11;0.50;;;0.50;;
16326;SDS011;34812;49.846;9.610;2023-07-29T09:56:14;3.83;;;0.50;;
16326;SDS011;34812;49.846;9.610;2023-07-29T10:01:18;0.95;;;0.60;;
16326;SDS011;34812;49.846;9.610;2023-07-29T10:06:20;1.75;;;0.50;;
16326;SDS011;34812;49.846;9.610;2023-07-29T10:11:23;2.15;;;0.73;;
16326;SDS011;34812;49.846;9.610;2023-07-29T10:16:26;1.52;;;0.70;;
16326;SDS011;34812;49.846;9.610;2023-07-29T10:21:28;0.85;;;0.50;;
16326;SDS011;34812;49.846;9.610;2023-07-29T10:26:31;1.08;;;0.38;;
16326;SDS011;34812;49.846;9.610;2023-07-29T10:31:35;0.60;;;0.45;;
16326;SDS011;34812;49.846;9.610;2023-07-29T10:36:37;0.50;;;0.50;;
16326;SDS011;34812;49.846;9.610;2023-07-29T10:41:55;0.50;;;0.50;;
16326;SDS011;34812;49.846;9.610;2023-07-29T10:46:58;2.65;;;0.65;;
16326;SDS011;34812;49.846;9.610;2023-07-29T10:52:00;2.30;;;0.90;;
16326;SDS011;34812;49.846;9.610;2023-07-29T10:57:03;1.25;;;0.65;;
16326;SDS011;34812;49.846;9.610;2023-07-29T11:02:14;0.50;;;0.50;;
16326;SDS011;34812;49.846;9.610;2023-07-29T11:07:21;0.82;;;0.60;;
16326;SDS011;34812;49.846;9.610;2023-07-29T11:12:33;0.75;;;0.70;;
16326;SDS011;34812;49.846;9.610;2023-07-29T11:17:38;0.60;;;0.60;;
16326;SDS011;34812;49.846;9.610;2023-07-29T11:22:41;0.50;;;0.50;;
16326;SDS011;34812;49.846;9.610;2023-07-29T11:27:43;0.60;;;0.60;;
16326;SDS011;34812;49.846;9.610;2023-07-29T11:32:47;0.60;;;0.57;;
16326;SDS011;34812;49.846;9.610;2023-07-29T11:37:49;0.75;;;0.75;;
16326;SDS011;34812;49.846;9.610;2023-07-29T11:42:52;0.63;;;0.63;;
16326;SDS011;34812;49.846;9.610;2023-07-29T11:47:55;3.20;;;0.88;;
16326;SDS011;34812;49.846;9.610;2023-07-29T11:52:58;1.05;;;0.70;;
16326;SDS011;34812;49.846;9.610;2023-07-29T11:58:00;0.73;;;0.70;;
16326;SDS011;34812;49.846;9.610;2023-07-29T12:03:04;0.68;;;0.68;;
16326;SDS011;34812;49.846;9.610;2023-07-29T12:08:08;0.85;;;0.80;;
16326;SDS011;34812;49.846;9.610;2023-07-29T12:13:10;0.70;;;0.70;;
16326;SDS011;34812;49.846;9.610;2023-07-29T12:18:15;1.90;;;0.85;;
16326;SDS011;34812;49.846;9.610;2023-07-29T12:23:18;0.65;;;0.60;;
16326;SDS011;34812;49.846;9.610;2023-07-29T12:28:26;1.20;;;0.63;;
16326;SDS011;34812;49.846;9.610;2023-07-29T12:33:33;1.17;;;0.82;;
16326;SDS011;34812;49.846;9.610;2023-07-29T12:38:35;3.60;;;1.05;;
16326;SDS011;34812;49.846;9.610;2023-07-29T12:43:37;1.00;;;0.63;;
16326;SDS011;34812;49.846;9.610;2023-07-29T12:48:41;1.42;;;0.77;;
16326;SDS011;34812;49.846;9.610;2023-07-29T12:53:43;1.73;;;0.52;;
16326;SDS011;34812;49.846;9.610;2023-07-29T12:58:45;0.75;;;0.70;;
16326;SDS011;34812;49.846;9.610;2023-07-29T13:03:49;2.10;;;0.57;;
16326;SDS011;34812;49.846;9.610;2023-07-29T13:08:51;0.57;;;0.57;;
16326;SDS011;34812;49.846;9.610;2023-07-29T13:13:53;1.05;;;0.68;;
16326;SDS011;34812;49.846;9.610;2023-07-29T13:18:57;1.50;;;0.70;;
16326;SDS011;34812;49.846;9.610;2023-07-29T13:23:59;1.00;;;0.80;;
16326;SDS011;34812;49.846;9.610;2023-07-29T13:29:01;0.63;;;0.63;;
16326;SDS011;34812;49.846;9.610;2023-07-29T13:34:05;0.70;;;0.70;;
16326;SDS011;34812;49.846;9.610;2023-07-29T13:39:07;1.17;;;0.80;;
16326;SDS011;34812;49.846;9.610;2023-07-29T13:44:09;1.30;;;0.77;;
16326;SDS011;34812;49.846;9.610;2023-07-29T13:49:13;0.47;;;0.45;;
16326;SDS011;34812;49.846;9.610;2023-07-29T13:54:15;1.20;;;0.60;;
16326;SDS011;34812;49.846;9.610;2023-07-29T13:59:17;1.38;;;0.80;;
16326;SDS011;34812;49.846;9.610;2023-07-29T14:04:21;1.25;;;0.70;;
16326;SDS011;34812;49.846;9.610;2023-07-29T14:09:23;0.70;;;0.70;;
16326;SDS011;34812;49.846;9.610;2023-07-29T14:14:25;0.75;;;0.75;;
16326;SDS011;34812;49.846;9.610;2023-07-29T14:19:28;0.63;;;0.50;;
16326;SDS011;34812;49.846;9.610;2023-07-29T14:24:30;1.67;;;0.80;;
16326;SDS011;34812;49.846;9.610;2023-07-29T14:29:32;2.85;;;0.90;;
16326;SDS011;34812;49.846;9.610;2023-07-29T14:34:36;3.22;;;0.80;;
16326;SDS011;34812;49.846;9.610;2023-07-29T14:39:38;0.40;;;0.40;;
16326;SDS011;34812;49.846;9.610;2023-07-29T14:44:40;2.05;;;0.50;;
16326;SDS011;34812;49.846;9.610;2023-07-29T14:49:44;1.05;;;0.65;;
16326;SDS011;34812;49.846;9.610;2023-07-29T14:54:46;0.70;;;0.55;;
16326;SDS011;34812;49.846;9.610;2023-07-29T14:59:49;1.75;;;0.60;;
16326;SDS011;34812;49.846;9.610;2023-07-29T15:04:52;0.57;;;0.55;;
16326;SDS011;34812;49.846;9.610;2023-07-29T15:09:54;0.50;;;0.50;;
16326;SDS011;34812;49.846;9.610;2023-07-29T15:14:56;0.70;;;0.50;;
16326;SDS011;34812;49.846;9.610;2023-07-29T15:20:00;0.40;;;0.30;;
16326;SDS011;34812;49.846;9.610;2023-07-29T15:25:02;0.55;;;0.40;;
16326;SDS011;34812;49.846;9.610;2023-07-29T15:30:05;0.60;;;0.50;;
16326;SDS011;34812;49.846;9.610;2023-07-29T15:35:08;0.40;;;0.40;;
16326;SDS011;34812;49.846;9.610;2023-07-29T15:40:11;0.50;;;0.43;;
16326;SDS011;34812;49.846;9.610;2023-07-29T15:45:13;0.82;;;0.50;;
16326;SDS011;34812;49.846;9.610;2023-07-29T15:50:17;0.30;;;0.30;;
16326;SDS011;34812;49.846;9.610;2023-07-29T15:55:20;0.95;;;0.70;;
16326;SDS011;34812;49.846;9.610;2023-07-29T16:00:22;0.63;;;0.43;;
16326;SDS011;34812;49.846;9.610;2023-07-29T16:05:25;0.73;;;0.50;;
16326;SDS011;34812;49.846;9.610;2023-07-29T16:10:28;0.70;;;0.70;;
16326;SDS011;34812;49.846;9.610;2023-07-29T16:15:30;0.80;;;0.50;;
16326;SDS011;34812;49.846;9.610;2023-07-29T16:20:33;3.30;;;0.45;;
16326;SDS011;34812;49.846;9.610;2023-07-29T16:25:36;0.68;;;0.50;;
16326;SDS011;34812;49.846;9.610;2023-07-29T16:30:38;0.50;;;0.50;;
16326;SDS011;34812;49.846;9.610;2023-07-29T16:35:41;0.57;;;0.57;;
16326;SDS011;34812;49.846;9.610;2023-07-29T16:40:43;0.60;;;0.60;;
16326;SDS011;34812;49.846;9.610;2023-07-29T16:45:46;0.77;;;0.55;;
16326;SDS011;34812;49.846;9.610;2023-07-29T16:50:49;1.05;;;0.60;;
16326;SDS011;34812;49.846;9.610;2023-07-29T16:55:51;1.02;;;0.60;;
16326;SDS011;34812;49.846;9.610;2023-07-29T17:00:53;0.50;;;0.50;;
16326;SDS011;34812;49.846;9.610;2023-07-29T17:05:57;3.47;;;0.70;;
16326;SDS011;34812;49.846;9.610;2023-07-29T17:10:59;0.60;;;0.60;;
16326;SDS011;34812;49.846;9.610;2023-07-29T17:16:01;1.15;;;0.57;;
16326;SDS011;34812;49.846;9.610;2023-07-29T17:21:04;1.73;;;0.68;;
16326;SDS011;34812;49.846;9.610;2023-07-29T17:26:06;0.73;;;0.50;;
16326;SDS011;34812;49.846;9.610;2023-07-29T17:31:09;1.33;;;0.80;;
16326;SDS011;34812;49.846;9.610;2023-07-29T17:36:12;0.93;;;0.57;;
16326;SDS011;34812;49.846;9.610;2023-07-29T17:41:14;0.57;;;0.57;;
16326;SDS011;34812;49.846;9.610;2023-07-29T17:46:17;0.70;;;0.50;;
16326;SDS011;34812;49.846;9.610;2023-07-29T17:51:20;1.35;;;0.60;;
16326;SDS011;34812;49.846;9.610;2023-07-29T17:56:22;0.50;;;0.50;;
16326;SDS011;34812;49.846;9.610;2023-07-29T18:01:26;0.73;;;0.68;;
16326;SDS011;34812;49.846;9.610;2023-07-29T18:06:29;0.80;;;0.80;;
16326;SDS011;34812;49.846;9.610;2023-07-29T18:11:31;0.85;;;0.57;;
16326;SDS011;34812;49.846;9.610;2023-07-29T18:16:34;0.88;;;0.60;;
16326;SDS011;34812;49.846;9.610;2023-07-29T18:21:39;1.38;;;0.65;;
16326;SDS011;34812;49.846;9.610;2023-07-29T18:26:41;0.95;;;0.80;;
16326;SDS011;34812;49.846;9.610;2023-07-29T18:31:43;0.90;;;0.55;;
16326;SDS011;34812;49.846;9.610;2023-07-29T18:36:47;0.70;;;0.60;;
16326;SDS011;34812;49.846;9.610;2023-07-29T18:41:49;3.00;;;1.00;;
16326;SDS011;34812;49.846;9.610;2023-07-29T18:46:51;1.33;;;0.70;;
16326;SDS011;34812;49.846;9.610;2023-07-29T18:51:54;2.85;;;0.90;;
16326;SDS011;34812;49.846;9.610;2023-07-29T18:56:56;0.80;;;0.80;;
16326;SDS011;34812;49.846;9.610;2023-07-29T19:01:59;0.90;;;0.90;;
16326;SDS011;34812;49.846;9.610;2023-07-29T19:07:02;1.48;;;0.70;;
16326;SDS011;34812;49.846;9.610;2023-07-29T19:12:05;1.35;;;0.80;;
16326;SDS011;34812;49.846;9.610;2023-07-29T19:17:07;0.82;;;0.77;;
16326;SDS011;34812;49.846;9.610;2023-07-29T19:22:10;0.82;;;0.77;;
16326;SDS011;34812;49.846;9.610;2023-07-29T19:27:12;1.13;;;0.60;;
16326;SDS011;34812;49.846;9.610;2023-07-29T19:32:15;1.50;;;0.73;;
16326;SDS011;34812;49.846;9.610;2023-07-29T19:37:19;2.85;;;1.13;;
16326;SDS011;34812;49.846;9.610;2023-07-29T19:42:21;1.08;;;0.70;;
16326;SDS011;34812;49.846;9.610;2023-07-29T19:47:23;1.05;;;0.82;;
16326;SDS011;34812;49.846;9.610;2023-07-29T19:52:27;2.72;;;1.23;;
16326;SDS011;34812;49.846;9.610;2023-07-29T19:57:29;1.30;;;0.90;;
16326;SDS011;34812;49.846;9.610;2023-07-29T20:02:31;1.10;;;0.80;;
16326;SDS011;34812;49.846;9.610;2023-07-29T20:07:35;0.70;;;0.60;;
16326;SDS011;34812;49.846;9.610;2023-07-29T20:12:37;1.05;;;0.88;;
16326;SDS011;34812;49.846;9.610;2023-07-29T20:17:39;2.25;;;1.00;;
16326;SDS011;34812;49.846;9.610;2023-07-29T20:22:44;1.10;;;1.00;;
16326;SDS011;34812;49.846;9.610;2023-07-29T20:27:46;1.70;;;0.88;;
16326;SDS011;34812;49.846;9.610;2023-07-29T20:32:49;2.60;;;1.00;;
16326;SDS011;34812;49.846;9.610;2023-07-29T20:37:52;2.55;;;1.00;;
16326;SDS011;34812;49.846;9.610;2023-07-29T20:42:54;0.95;;;0.93;;
16326;SDS011;34812;49.846;9.610;2023-07-29T20:47:56;0.98;;;0.88;;
16326;SDS011;34812;49.846;9.610;2023-07-29T20:53:00;1.17;;;0.90;;
16326;SDS011;34812;49.846;9.610;2023-07-29T20:58:02;1.10;;;0.70;;
16326;SDS011;34812;49.846;9.610;2023-07-29T21:03:04;1.73;;;1.05;;
16326;SDS011;34812;49.846;9.610;2023-07-29T21:08:07;0.95;;;0.82;;
16326;SDS011;34812;49.846;9.610;2023-07-29T21:13:10;1.35;;;0.88;;
16326;SDS011;34812;49.846;9.610;2023-07-29T21:18:12;1.55;;;1.02;;
16326;SDS011;34812;49.846;9.610;2023-07-29T21:23:15;1.98;;;1.05;;
16326;SDS011;34812;49.846;9.610;2023-07-29T21:28:18;1.80;;;1.15;;
16326;SDS011;34812;49.846;9.610;2023-07-29T21:33:20;1.75;;;1.30;;
16326;SDS011;34812;49.846;9.610;2023-07-29T21:38:24;2.25;;;1.33;;
16326;SDS011;34812;49.846;9.610;2023-07-29T21:43:26;1.00;;;0.90;;
16326;SDS011;34812;49.846;9.610;2023-07-29T21:48:28;1.42;;;1.27;;
16326;SDS011;34812;49.846;9.610;2023-07-29T21:53:31;1.38;;;1.27;;
16326;SDS011;34812;49.846;9.610;2023-07-29T21:58:33;1.17;;;1.00;;
16326;SDS011;34812;49.846;9.610;2023-07-29T22:03:36;1.20;;;1.10;;
16326;SDS011;34812;49.846;9.610;2023-07-29T22:08:39;1.48;;;1.15;;
16326;SDS011;34812;49.846;9.610;2023-07-29T22:13:41;1.33;;;1.05;;
16326;SDS011;34812;49.846;9.610;2023-07-29T22:18:43;1.23;;;0.95;;
16326;SDS011;34812;49.846;9.610;2023-07-29T22:23:47;1.40;;;1.20;;
16326;SDS011;34812;49.846;9.610;2023-07-29T22:28:49;1.63;;;1.33;;
16326;SDS011;34812;49.846;9.610;2023-07-29T22:33:51;1.88;;;1.40;;
16326;SDS011;34812;49.846;9.610;2023-07-29T22:38:54;1.60;;;1.10;;
16326;SDS011;34812;49.846;9.610;2023-07-29T22:43:56;1.10;;;1.00;;
16326;SDS011;34812;49.846;9.610;2023-07-29T22:48:59;1.48;;;1.30;;
16326;SDS011;34812;49.846;9.610;2023-07-29T22:54:02;1.55;;;1.00;;
16326;SDS011;34812;49.846;9.610;2023-07-29T22:59:04;1.98;;;1.20;;
16326;SDS011;34812;49.846;9.610;2023-07-29T23:04:08;1.65;;;1.38;;
16326;SDS011;34812;49.846;9.610;2023-07-29T23:09:11;2.45;;;1.15;;
16326;SDS011;34812;49.846;9.610;2023-07-29T23:14:13;1.13;;;1.00;;
16326;SDS011;34812;49.846;9.610;2023-07-29T23:19:16;2.47;;;1.42;;
16326;SDS011;34812;49.846;9.610;2023-07-29T23:24:19;1.55;;;1.45;;
16326;SDS011;34812;49.846;9.610;2023-07-29T23:29:21;1.77;;;1.30;;
16326;SDS011;34812;49.846;9.610;2023-07-29T23:34:23;1.45;;;0.95;;
16326;SDS011;34812;49.846;9.610;2023-07-29T23:39:27;1.80;;;1.33;;
16326;SDS011;34812;49.846;9.610;2023-07-29T23:44:29;2.78;;;1.33;;
16326;SDS011;34812;49.846;9.610;2023-07-29T23:49:31;3.72;;;1.33;;
16326;SDS011;34812;49.846;9.610;2023-07-29T23:54:35;5.45;;;1.33;;
16326;SDS011;34812;49.846;9.610;2023-07-29T23:59:37;1.50;;;1.20;;
